createdAt,value
2022-09-06T00:01:12.463Z,4.13
2022-09-06T00:03:40.983Z,3.67
2022-09-06T00:06:11.482Z,3.50
2022-09-06T00:08:39.878Z,3.45
2022-09-06T00:11:08.452Z,3.53
2022-09-06T00:13:36.667Z,3.67
2022-09-06T00:16:10.129Z,3.70
2022-09-06T00:18:38.555Z,3.80
2022-09-06T00:21:17.985Z,3.13
2022-09-06T00:23:45.730Z,3.20
2022-09-06T00:26:13.971Z,3.10
2022-09-06T00:28:41.708Z,2.55
2022-09-06T00:31:18.244Z,2.70
2022-09-06T00:33:46.066Z,2.47
2022-09-06T00:36:14.071Z,2.47
2022-09-06T00:38:42.469Z,3.00
2022-09-06T00:41:13.286Z,2.80
2022-09-06T00:43:41.390Z,3.25
2022-09-06T00:46:15.678Z,2.60
2022-09-06T00:48:44.835Z,3.30
2022-09-06T00:51:14.079Z,3.00
2022-09-06T00:53:41.759Z,3.80
2022-09-06T00:56:09.746Z,3.10
2022-09-06T00:58:37.656Z,2.95
2022-09-06T01:01:06.818Z,2.72
2022-09-06T01:03:35.594Z,2.53
2022-09-06T01:06:09.127Z,2.65
2022-09-06T01:08:48.642Z,2.83
2022-09-06T01:11:33.135Z,3.70
2022-09-06T01:14:21.456Z,3.45
2022-09-06T01:17:06.377Z,3.20
2022-09-06T01:19:58.665Z,2.50
2022-09-06T01:22:59.819Z,1.90
2022-09-06T01:25:38.005Z,2.00
2022-09-06T01:28:30.201Z,1.70
2022-09-06T01:31:11.538Z,1.73
2022-09-06T01:33:59.466Z,1.98
2022-09-06T01:36:36.051Z,1.85
2022-09-06T01:39:04.330Z,2.13
2022-09-06T01:41:33.376Z,2.22
2022-09-06T01:44:01.047Z,1.77
2022-09-06T01:46:39.613Z,2.15
2022-09-06T01:49:25.057Z,2.30
2022-09-06T01:52:27.781Z,2.35
2022-09-06T01:55:14.147Z,2.20
2022-09-06T01:57:47.483Z,2.00
2022-09-06T02:00:20.450Z,2.00
2022-09-06T02:02:54.035Z,2.15
2022-09-06T02:05:34.468Z,2.00
2022-09-06T02:08:16.323Z,2.17
2022-09-06T02:10:50.566Z,2.65
2022-09-06T02:13:19.641Z,2.50
2022-09-06T02:15:54.429Z,2.38
2022-09-06T02:18:29.802Z,2.78
2022-09-06T02:20:58.728Z,3.85
2022-09-06T02:23:31.192Z,2.45
2022-09-06T02:26:09.690Z,2.50
2022-09-06T02:28:37.551Z,2.70
2022-09-06T02:31:13.264Z,2.47
2022-09-06T02:33:44.119Z,2.80
2022-09-06T02:36:11.916Z,2.78
2022-09-06T02:38:41.926Z,2.45
2022-09-06T02:41:12.418Z,3.05
2022-09-06T02:43:42.165Z,3.53
2022-09-06T02:46:09.883Z,3.03
2022-09-06T02:48:37.562Z,3.20
2022-09-06T02:51:06.576Z,3.10
2022-09-06T02:53:34.280Z,4.13
2022-09-06T02:56:02.411Z,3.40
2022-09-06T02:58:30.189Z,3.65
2022-09-06T03:00:57.956Z,3.03
2022-09-06T03:03:27.427Z,3.80
2022-09-06T03:05:55.728Z,3.50
2022-09-06T03:08:26.529Z,3.53
2022-09-06T03:10:56.478Z,3.53
2022-09-06T03:13:24.752Z,4.03
2022-09-06T03:15:57.866Z,3.70
2022-09-06T03:18:27.068Z,4.30
2022-09-06T03:20:55.516Z,4.25
2022-09-06T03:23:25.613Z,4.60
2022-09-06T03:25:54.049Z,5.38
2022-09-06T03:28:22.772Z,5.78
2022-09-06T03:30:51.867Z,5.65
2022-09-06T03:33:20.456Z,8.48
2022-09-06T03:35:50.722Z,10.40
2022-09-06T03:38:18.911Z,10.98
2022-09-06T03:40:47.795Z,12.80
2022-09-06T03:43:17.549Z,11.50
2022-09-06T03:45:49.788Z,13.90
2022-09-06T03:48:18.931Z,13.20
2022-09-06T03:50:48.209Z,14.15
2022-09-06T03:53:17.182Z,15.02
2022-09-06T03:55:46.568Z,16.75
2022-09-06T03:58:14.667Z,16.08
2022-09-06T04:00:42.342Z,16.50
2022-09-06T04:03:09.995Z,16.17
2022-09-06T04:05:37.603Z,16.60
2022-09-06T04:08:06.115Z,17.17
2022-09-06T04:10:33.955Z,17.55
2022-09-06T04:13:01.630Z,17.63
2022-09-06T04:15:29.251Z,16.25
2022-09-06T04:17:57.233Z,18.02
2022-09-06T04:20:24.826Z,17.85
2022-09-06T04:22:52.396Z,18.83
2022-09-06T04:25:19.971Z,17.42
2022-09-06T04:27:47.544Z,18.60
2022-09-06T04:32:57.351Z,19.25
2022-09-06T04:35:24.951Z,21.05
2022-09-06T04:37:52.504Z,19.63
2022-09-06T04:40:20.077Z,19.70
2022-09-06T04:42:47.772Z,18.77
2022-09-06T04:45:15.435Z,19.27
2022-09-06T04:47:43.058Z,20.00
2022-09-06T04:50:10.827Z,19.60
2022-09-06T04:52:38.908Z,21.40
2022-09-06T04:55:06.967Z,21.35
2022-09-06T04:57:34.620Z,22.15
2022-09-06T05:00:02.343Z,23.20
2022-09-06T05:02:29.958Z,24.05
2022-09-06T05:04:57.519Z,22.73
2022-09-06T05:07:25.153Z,22.83
2022-09-06T05:09:52.870Z,23.27
2022-09-06T05:12:20.414Z,22.80
2022-09-06T05:14:48.033Z,22.33
2022-09-06T05:17:15.685Z,20.92
2022-09-06T05:19:43.235Z,23.33
2022-09-06T05:22:12.105Z,23.48
2022-09-06T05:24:40.030Z,23.70
2022-09-06T05:27:07.691Z,22.85
2022-09-06T05:29:35.293Z,22.13
2022-09-06T05:32:03.172Z,22.30
2022-09-06T05:34:30.797Z,24.48
2022-09-06T05:36:58.374Z,23.80
2022-09-06T05:39:26.113Z,24.15
2022-09-06T05:41:53.750Z,24.02
2022-09-06T05:44:21.500Z,23.83
2022-09-06T05:46:49.123Z,24.38
2022-09-06T05:49:16.672Z,21.77
2022-09-06T05:51:44.237Z,23.63
2022-09-06T05:54:12.209Z,23.13
2022-09-06T05:56:39.792Z,23.77
2022-09-06T05:59:07.410Z,23.92
2022-09-06T06:01:35.033Z,21.50
2022-09-06T06:04:05.293Z,21.92
2022-09-06T06:06:34.600Z,21.48
2022-09-06T06:09:02.612Z,21.02
2022-09-06T06:11:31.218Z,21.50
2022-09-06T06:13:59.136Z,20.90
2022-09-06T06:16:27.536Z,21.05
2022-09-06T06:18:55.255Z,20.08
2022-09-06T06:21:27.859Z,22.17
2022-09-06T06:24:01.278Z,21.33
2022-09-06T06:26:31.546Z,19.88
2022-09-06T06:29:01.994Z,20.65
2022-09-06T06:31:32.441Z,21.67
2022-09-06T06:34:03.252Z,21.65
2022-09-06T06:36:33.960Z,19.48
2022-09-06T06:39:04.138Z,19.67
2022-09-06T06:41:33.068Z,17.92
2022-09-06T06:44:05.642Z,18.13
2022-09-06T06:46:36.315Z,19.02
2022-09-06T06:49:04.678Z,17.83
2022-09-06T06:51:36.285Z,18.50
2022-09-06T06:56:34.875Z,16.50
2022-09-06T06:59:04.633Z,17.07
2022-09-06T07:01:33.821Z,16.88
2022-09-06T07:04:01.556Z,16.50
2022-09-06T07:09:18.524Z,15.25
2022-09-06T07:11:48.845Z,18.00
2022-09-06T07:14:17.409Z,17.50
2022-09-06T07:16:45.617Z,18.70
2022-09-06T07:22:04.496Z,20.60
2022-09-06T07:24:33.447Z,19.10
2022-09-06T07:29:48.693Z,17.17
2022-09-06T07:32:16.338Z,17.60
2022-09-06T07:34:44.251Z,15.80
2022-09-06T07:37:11.783Z,16.52
2022-09-06T07:39:39.980Z,15.75
2022-09-06T07:42:08.275Z,14.05
2022-09-06T07:44:35.862Z,14.40
2022-09-06T07:55:29.494Z,12.27
2022-09-06T07:57:57.077Z,11.40
2022-09-06T08:00:25.294Z,12.02
2022-09-06T08:02:53.029Z,12.23
2022-09-06T08:10:56.027Z,12.48
2022-09-06T08:13:23.698Z,12.25
2022-09-06T08:16:06.267Z,12.25
2022-09-06T08:18:34.830Z,12.20
2022-09-06T08:21:18.394Z,13.10
2022-09-06T08:23:50.958Z,12.15
2022-09-06T08:26:23.084Z,12.88
2022-09-06T08:29:00.159Z,13.20
2022-09-06T08:31:29.682Z,12.77
2022-09-06T08:33:58.627Z,13.35
2022-09-06T08:36:29.602Z,12.75
2022-09-06T08:38:58.487Z,11.98
2022-09-06T08:42:05.369Z,11.30
2022-09-06T08:44:55.350Z,12.05
2022-09-06T08:47:24.264Z,9.38
2022-09-06T08:49:56.644Z,10.00
2022-09-06T08:53:00.187Z,9.18
2022-09-06T08:55:39.406Z,8.55
2022-09-06T08:58:34.351Z,7.70
2022-09-06T09:01:10.554Z,7.70
2022-09-06T09:03:40.181Z,6.97
2022-09-06T09:06:10.238Z,6.97
2022-09-06T09:09:01.761Z,6.85
2022-09-06T09:11:30.348Z,5.63
2022-09-06T09:13:59.261Z,5.28
2022-09-06T09:16:27.137Z,4.72
2022-09-06T09:18:59.233Z,4.40
2022-09-06T09:21:30.785Z,4.20
2022-09-06T09:24:10.310Z,3.92
2022-09-06T09:27:04.003Z,4.20
2022-09-06T09:29:36.181Z,3.90
2022-09-06T09:32:04.137Z,4.20
2022-09-06T09:34:33.925Z,4.40
2022-09-06T09:40:27.631Z,5.00
2022-09-06T09:43:08.820Z,4.72
2022-09-06T09:45:36.470Z,5.57
2022-09-06T09:48:17.208Z,7.40
2022-09-06T09:50:45.917Z,9.15
2022-09-06T09:53:16.321Z,8.05
2022-09-06T09:55:45.884Z,8.77
2022-09-06T09:58:21.786Z,7.07
2022-09-06T10:01:11.003Z,7.25
2022-09-06T10:09:36.317Z,5.10
2022-09-06T10:12:04.930Z,4.60
2022-09-06T10:14:45.377Z,3.95
2022-09-06T10:17:31.500Z,4.63
2022-09-06T10:20:17.652Z,4.55
2022-09-06T10:23:13.024Z,5.00
2022-09-06T10:26:08.886Z,5.18
2022-09-06T10:28:45.495Z,5.07
2022-09-06T10:31:29.058Z,5.35
2022-09-06T10:34:29.073Z,4.25
2022-09-06T10:37:02.418Z,4.45
2022-09-06T10:39:38.730Z,4.10
2022-09-06T10:42:14.218Z,3.90
2022-09-06T10:45:06.379Z,3.67
2022-09-06T10:48:14.456Z,4.05
2022-09-06T10:51:04.035Z,4.63
2022-09-06T10:53:31.625Z,4.57
2022-09-06T10:56:29.131Z,4.70
2022-09-06T11:02:27.213Z,4.75
2022-09-06T11:11:07.350Z,5.50
2022-09-06T11:13:35.073Z,5.80
2022-09-06T11:16:11.864Z,5.50
2022-09-06T11:18:49.682Z,5.95
2022-09-06T11:21:29.434Z,6.53
2022-09-06T11:24:41.347Z,5.93
2022-09-06T11:29:46.285Z,5.05
2022-09-06T11:32:40.159Z,4.60
2022-09-06T11:35:11.205Z,5.18
2022-09-06T11:37:43.122Z,4.03
2022-09-06T11:40:46.745Z,4.20
2022-09-06T11:43:38.719Z,4.80
2022-09-06T11:46:06.496Z,3.70
2022-09-06T11:48:50.412Z,3.67
2022-09-06T11:51:33.967Z,3.60
2022-09-06T11:54:17.321Z,3.55
2022-09-06T11:57:17.080Z,2.63
2022-09-06T11:59:50.117Z,3.00
2022-09-06T12:02:36.870Z,2.58
2022-09-06T12:05:07.502Z,2.90
2022-09-06T12:07:37.889Z,3.28
2022-09-06T12:10:30.228Z,3.22
2022-09-06T12:12:59.210Z,3.25
2022-09-06T12:15:45.142Z,2.72
2022-09-06T12:18:47.996Z,2.75
2022-09-06T12:21:38.803Z,2.80
2022-09-06T12:24:09.339Z,2.55
2022-09-06T12:27:08.390Z,2.80
2022-09-06T12:29:36.507Z,2.30
2022-09-06T12:32:05.912Z,2.47
2022-09-06T12:34:35.591Z,2.72
2022-09-06T12:37:09.309Z,3.42
2022-09-06T12:39:37.694Z,2.92
2022-09-06T12:42:08.103Z,2.72
2022-09-06T12:44:49.100Z,3.63
2022-09-06T12:47:30.962Z,2.88
2022-09-06T12:50:19.949Z,2.92
2022-09-06T12:52:56.314Z,2.92
2022-09-06T12:55:33.902Z,2.28
2022-09-06T12:58:07.548Z,2.90
2022-09-06T13:00:51.732Z,3.22
2022-09-06T13:03:19.270Z,2.40
2022-09-06T13:05:47.580Z,2.60
2022-09-06T13:08:23.973Z,2.75
2022-09-06T13:10:52.180Z,2.67
2022-09-06T13:13:24.347Z,2.92
2022-09-06T13:15:53.180Z,3.38
2022-09-06T13:18:39.735Z,2.97
2022-09-06T13:21:18.904Z,2.33
2022-09-06T13:23:50.659Z,2.55
2022-09-06T13:26:38.850Z,2.65
2022-09-06T13:29:30.827Z,2.33
2022-09-06T13:32:01.304Z,2.72
2022-09-06T13:34:31.898Z,2.63
2022-09-06T13:37:06.658Z,2.30
2022-09-06T13:39:37.992Z,2.47
2022-09-06T13:42:24.383Z,2.60
2022-09-06T13:44:52.235Z,2.17
2022-09-06T13:47:19.889Z,2.63
2022-09-06T13:49:47.965Z,2.10
2022-09-06T13:52:16.097Z,2.55
2022-09-06T13:54:44.289Z,2.90
2022-09-06T13:57:12.266Z,2.80
2022-09-06T13:59:39.998Z,2.35
2022-09-06T14:02:10.152Z,1.98
2022-09-06T14:04:38.823Z,2.27
2022-09-06T14:07:06.468Z,2.47
2022-09-06T14:09:34.103Z,2.08
2022-09-06T14:12:02.245Z,1.77
2022-09-06T14:14:29.883Z,2.20
2022-09-06T14:16:57.452Z,2.45
2022-09-06T14:19:25.086Z,2.20
2022-09-06T14:21:53.027Z,2.17
2022-09-06T14:24:20.794Z,1.92
2022-09-06T14:26:48.929Z,2.00
2022-09-06T14:29:16.633Z,1.73
2022-09-06T14:31:44.205Z,2.88
2022-09-06T14:34:11.883Z,2.47
2022-09-06T14:36:40.073Z,1.60
2022-09-06T14:39:07.856Z,1.73
2022-09-06T14:41:35.790Z,2.05
2022-09-06T14:44:04.444Z,2.30
2022-09-06T14:46:32.041Z,2.28
2022-09-06T14:49:08.840Z,2.13
2022-09-06T14:51:38.334Z,1.83
2022-09-06T14:54:11.539Z,2.20
2022-09-06T14:56:41.151Z,2.65
2022-09-06T14:59:09.655Z,2.28
2022-09-06T15:01:39.037Z,1.98
2022-09-06T15:04:10.143Z,2.50
2022-09-06T15:09:08.264Z,2.78
2022-09-06T15:11:48.078Z,2.17
2022-09-06T15:14:20.342Z,2.53
2022-09-06T15:16:53.312Z,2.25
2022-09-06T15:19:24.801Z,1.92
2022-09-06T15:21:54.364Z,2.10
2022-09-06T15:24:21.972Z,2.00
2022-09-06T15:26:50.075Z,1.98
2022-09-06T15:29:17.816Z,2.08
2022-09-06T15:31:50.218Z,1.83
2022-09-06T15:34:20.471Z,2.00
2022-09-06T15:36:49.102Z,1.98
2022-09-06T15:39:17.388Z,2.50
2022-09-06T15:41:45.462Z,2.20
2022-09-06T15:44:15.958Z,2.03
2022-09-06T15:46:45.270Z,2.00
2022-09-06T15:49:19.222Z,2.28
2022-09-06T15:51:46.929Z,2.00
2022-09-06T15:54:16.714Z,2.60
2022-09-06T15:56:45.577Z,2.00
2022-09-06T15:59:13.709Z,2.65
2022-09-06T16:01:41.414Z,3.03
2022-09-06T16:04:09.122Z,2.30
2022-09-06T16:06:39.731Z,2.95
2022-09-06T16:09:14.367Z,2.97
2022-09-06T16:11:42.071Z,3.10
2022-09-06T16:14:12.178Z,2.25
2022-09-06T16:16:40.541Z,2.83
2022-09-06T16:19:10.068Z,2.38
2022-09-06T16:21:39.611Z,2.30
2022-09-06T16:24:10.108Z,2.17
2022-09-06T16:26:40.594Z,2.50
2022-09-06T16:29:09.556Z,3.03
2022-09-06T16:31:40.362Z,2.70
2022-09-06T16:34:09.804Z,2.47
2022-09-06T16:36:37.985Z,2.92
2022-09-06T16:39:06.530Z,4.20
2022-09-06T16:41:42.902Z,3.70
2022-09-06T16:44:16.804Z,3.40
2022-09-06T16:46:46.866Z,3.28
2022-09-06T16:49:19.467Z,3.10
2022-09-06T16:51:48.439Z,2.58
2022-09-06T16:54:18.269Z,2.45
2022-09-06T16:56:46.171Z,2.47
2022-09-06T16:59:17.460Z,2.50
2022-09-06T17:04:13.990Z,2.08
2022-09-06T17:06:45.679Z,2.08
2022-09-06T17:09:19.201Z,2.65
2022-09-06T17:11:50.077Z,2.40
2022-09-06T17:14:19.238Z,2.10
2022-09-06T17:17:05.291Z,2.50
2022-09-06T17:19:37.651Z,2.50
2022-09-06T17:22:05.858Z,2.30
2022-09-06T17:24:33.935Z,2.30
2022-09-06T17:27:01.593Z,2.33
2022-09-06T17:29:29.220Z,2.97
2022-09-06T17:31:56.999Z,2.00
2022-09-06T17:34:24.664Z,2.58
2022-09-06T17:36:53.007Z,2.25
2022-09-06T17:39:21.259Z,2.20
2022-09-06T17:41:51.127Z,2.13
2022-09-06T17:44:21.560Z,1.63
2022-09-06T17:47:11.523Z,2.53
2022-09-06T17:49:37.134Z,2.00
2022-09-06T17:52:04.749Z,1.90
2022-09-06T17:54:32.521Z,1.90
2022-09-06T17:57:00.440Z,1.90
2022-09-06T17:59:31.583Z,2.70
2022-09-06T18:02:02.102Z,1.75
2022-09-06T18:04:29.777Z,1.63
2022-09-06T18:06:57.532Z,1.83
2022-09-06T18:09:25.135Z,2.80
2022-09-06T18:11:52.806Z,1.60
2022-09-06T18:14:23.471Z,2.33
2022-09-06T18:16:52.189Z,1.80
2022-09-06T18:19:20.491Z,2.20
2022-09-06T18:21:49.047Z,2.17
2022-09-06T18:24:17.240Z,2.05
2022-09-06T18:26:45.455Z,1.60
2022-09-06T18:29:15.065Z,1.60
2022-09-06T18:31:43.572Z,2.30
2022-09-06T18:34:12.179Z,2.10
2022-09-06T18:36:40.466Z,2.50
2022-09-06T18:39:09.395Z,2.05
2022-09-06T18:41:55.819Z,2.15
2022-09-06T18:44:23.855Z,1.90
2022-09-06T18:46:55.729Z,2.15
2022-09-06T18:49:23.596Z,1.83
2022-09-06T18:51:51.279Z,1.77
2022-09-06T18:54:19.539Z,2.08
2022-09-06T18:56:50.034Z,3.33
2022-09-06T18:59:18.718Z,2.22
2022-09-06T19:01:46.610Z,2.08
2022-09-06T19:04:14.468Z,4.03
2022-09-06T19:06:43.761Z,3.25
2022-09-06T19:09:14.670Z,5.50
2022-09-06T19:11:45.508Z,5.15
2022-09-06T19:14:13.835Z,2.67
2022-09-06T19:16:42.167Z,2.58
2022-09-06T19:19:10.103Z,2.67
2022-09-06T19:21:41.968Z,1.88
2022-09-06T19:24:11.683Z,2.45
2022-09-06T19:26:42.833Z,2.00
2022-09-06T19:29:17.510Z,2.20
2022-09-06T19:31:47.203Z,2.50
2022-09-06T19:34:16.164Z,2.10
2022-09-06T19:36:45.646Z,2.58
2022-09-06T19:39:15.877Z,1.88
2022-09-06T19:41:46.725Z,2.20
2022-09-06T19:44:17.798Z,2.30
2022-09-06T19:46:47.145Z,1.88
2022-09-06T19:49:17.454Z,2.50
2022-09-06T19:51:46.716Z,1.90
2022-09-06T19:54:15.778Z,2.45
2022-09-06T19:56:44.421Z,2.15
2022-09-06T19:59:13.582Z,2.65
2022-09-06T20:01:43.371Z,2.63
2022-09-06T20:04:12.941Z,2.15
2022-09-06T20:06:40.792Z,1.83
2022-09-06T20:09:10.083Z,1.75
2022-09-06T20:11:39.117Z,2.88
2022-09-06T20:14:06.873Z,2.30
2022-09-06T20:16:39.335Z,3.15
2022-09-06T20:19:09.164Z,1.80
2022-09-06T20:21:36.766Z,2.35
2022-09-06T20:24:04.603Z,1.80
2022-09-06T20:26:33.249Z,2.08
2022-09-06T20:29:03.654Z,2.50
2022-09-06T20:31:32.877Z,2.30
2022-09-06T20:34:02.095Z,3.28
2022-09-06T20:36:30.247Z,2.78
2022-09-06T20:38:58.084Z,2.10
2022-09-06T20:41:26.717Z,1.77
2022-09-06T20:43:59.084Z,2.33
2022-09-06T20:46:29.608Z,2.42
2022-09-06T20:48:59.795Z,2.75
2022-09-06T20:51:27.505Z,2.72
2022-09-06T20:53:57.335Z,2.58
2022-09-06T20:56:27.420Z,3.22
2022-09-06T20:58:57.351Z,2.35
2022-09-06T21:01:26.767Z,2.28
2022-09-06T21:03:56.807Z,2.42
2022-09-06T21:06:26.816Z,3.13
2022-09-06T21:08:55.466Z,2.40
2022-09-06T21:11:23.534Z,3.55
2022-09-06T21:13:53.105Z,2.75
2022-09-06T21:16:24.613Z,2.22
2022-09-06T21:18:54.650Z,2.35
2022-09-06T21:21:23.149Z,2.90
2022-09-06T21:23:51.197Z,3.03
2022-09-06T21:26:18.946Z,2.90
2022-09-06T21:28:47.885Z,3.13
2022-09-06T21:31:22.249Z,2.35
2022-09-06T21:33:55.322Z,2.95
2022-09-06T21:36:25.252Z,2.47
2022-09-06T21:38:55.511Z,2.85
2022-09-06T21:41:23.824Z,3.08
2022-09-06T21:43:53.598Z,3.55
2022-09-06T21:46:23.185Z,3.00
2022-09-06T21:48:52.917Z,4.10
2022-09-06T21:51:23.492Z,2.78
2022-09-06T21:53:51.954Z,3.23
2022-09-06T21:56:20.036Z,3.08
2022-09-06T21:58:55.732Z,2.83
2022-09-06T22:01:25.132Z,2.75
2022-09-06T22:03:52.957Z,3.00
2022-09-06T22:06:24.831Z,2.75
2022-09-06T22:08:52.836Z,3.53
2022-09-06T22:11:23.023Z,2.55
2022-09-06T22:13:51.125Z,2.90
2022-09-06T22:16:21.979Z,3.00
2022-09-06T22:18:51.460Z,2.92
2022-09-06T22:21:21.248Z,2.67
2022-09-06T22:23:56.638Z,3.50
2022-09-06T22:26:26.744Z,3.30
2022-09-06T22:28:56.254Z,2.90
2022-09-06T22:31:26.805Z,2.15
2022-09-06T22:33:55.305Z,2.85
2022-09-06T22:36:23.984Z,2.80
2022-09-06T22:38:56.360Z,3.40
2022-09-06T22:41:25.783Z,2.08
2022-09-06T22:43:53.570Z,2.70
2022-09-06T22:46:21.380Z,2.55
2022-09-06T22:48:49.364Z,3.15
2022-09-06T22:51:17.264Z,2.88
2022-09-06T22:53:44.940Z,3.53
2022-09-06T22:56:12.626Z,3.20
2022-09-06T22:58:40.143Z,3.30
2022-09-06T23:01:10.825Z,3.25
2022-09-06T23:03:38.951Z,2.83
2022-09-06T23:06:06.855Z,2.95
2022-09-06T23:08:36.682Z,3.15
2022-09-06T23:11:07.288Z,3.83
2022-09-06T23:13:35.312Z,3.10
2022-09-06T23:16:05.223Z,3.45
2022-09-06T23:18:33.028Z,3.83
2022-09-06T23:21:07.649Z,3.08
2022-09-06T23:23:36.831Z,3.35
2022-09-06T23:26:06.146Z,2.50
2022-09-06T23:28:34.709Z,2.85
2022-09-06T23:31:04.558Z,4.40
2022-09-06T23:33:35.129Z,3.75
2022-09-06T23:36:07.003Z,3.33
2022-09-06T23:38:36.014Z,3.53
2022-09-06T23:41:04.368Z,2.85
2022-09-06T23:43:32.238Z,3.05
2022-09-06T23:45:59.990Z,2.67
2022-09-06T23:48:27.550Z,3.63
2022-09-06T23:50:55.144Z,2.15
2022-09-06T23:53:23.390Z,3.40
2022-09-06T23:55:50.926Z,3.30
2022-09-06T23:58:18.566Z,2.95
